METAR AND TAF INFORMATION
METAR FOR SVBM
ADDS - METARS form results

(1241 UTC 24 October 2020)
Data provider http://aviationweather.gov/metar/data/
 
METAR text: SVBM 241202Z AUTO 09005KT NCD 16/23 Q1015
Conditions at: SVBM (BARQUISIMETO (MI, VE) observed 1202 UTC 24 October 2020
Temperature: 16.0°C (61°F)
Dewpoint: 23.0°C (73°F) [RH = 155%]
Pressure (altimeter): 29.97 inches Hg (1015.0 mb)
Winds: from the E (90 degrees) at 6 MPH (5 knots; 2.6 m/s)
Visibility: missing
Ceiling: at least 12,000 feet AGL
Clouds: sky clear below 12,000 feet AGL
Weather: no significant weather observed at this time

METAR text: SVBM 241200Z 07005KT 9999 OVC016 23/21 Q1015
Conditions at: SVBM (BARQUISIMETO (MI, VE) observed 1200 UTC 24 October 2020
Temperature: 23.0°C (73°F)
Dewpoint: 21.0°C (70°F) [RH = 89%]
Pressure (altimeter): 29.97 inches Hg (1015.0 mb)
Winds: from the ENE (70 degrees) at 6 MPH (5 knots; 2.6 m/s)
Visibility: 6 or more miles (10+ km)
Ceiling: 1600 feet AGL
Clouds: overcast cloud deck at 1600 feet AGL
Weather: no significant weather observed at this time

 AIRPORT MAP

 RUNWAY INFORMATION
Runway 09 Runway length 9350 ft Runway width 147 ft
Runway elevation 2042 ft Runway displaced threshold 0 ft Runway heading 81
Runway 27 Runway length 9350 ft Runway width 147 ft
Runway elevation 2001 ft Runway displaced threshold 1541 ft Runway heading 261

 AIRPORT FREQUENCIES
Type A/G Name LANDAETA R Frequency 569.65 MHZ
Type APP Name APP Frequency 119.4 MHZ
Type ATIS Name ATIS Frequency 112.2 MHZ
Type GND Name GND Frequency 121.9 MHZ
Type RDO Name RDO Frequency 123.1 MHZ
Type RDO Name RDO Frequency 132 MHZ
Type TWR Name TWR Frequency 123.5 MHZ

 AIRPORT NEAR NAVIGATION AIDS
Type VOR-DME Name Barquisimeto Frequency 112200 KHZ